ADDS METAR Data INFO
IDs: Format: Raw Decoded Include TAF

Data at: 0750 UTC 17 Oct 2017

KPQI 170656Z AUTO 29003KT 10SM CLR 01/M02 A3010 RMK AO2 SLP239 T00111022 FZRANO
KPQI 170556Z AUTO 30004KT 10SM BKN065 02/M02 A3009 RMK AO2 SLP235 60000 T00221017 10033 20022 53004 FZRANO
KPQI 170456Z AUTO 32007KT 10SM OVC060 03/M01 A3009 RMK AO2 SLP234 T00281006 401720022
KPQI 170356Z AUTO 29006KT 10SM OVC060 03/00 A3008 RMK AO2 SLP231 T00280000
KPQI 170256Z AUTO 31006KT 10SM OVC060 02/00 A3008 RMK AO2 SLP232 60000 T00220000 51011 FZRANO
KPQI 170056Z AUTO 33007KT 10SM OVC055 03/01 A3006 RMK AO2 RAE02 SLP223 P0000 T00330011
KPQI 170004Z AUTO 34005KT 10SM FEW018 SCT025 OVC049 03/01 A3005 RMK AO2 RAE02 P0000
KPQI 162356Z AUTO 01005KT 10SM -RA FEW018 BKN026 OVC049 03/02 A3005 RMK AO2 RAB17 SLP220 P0000 60000 T00330017 10078 20033 51019
KPQI 162324Z AUTO 34011KT 8SM -RA SCT023 BKN029 OVC046 04/01 A3004 RMK AO2 RAB17 P0000
KPQI 162256Z AUTO 33006KT 10SM SCT029 OVC044 05/01 A3003 RMK AO2 SLP213 T00500011
KPQI 162156Z AUTO 33008KT 10SM FEW023 SCT034 OVC042 05/01 A3001 RMK AO2 RAB36E48 SLP210 P0000 T00500011
KPQI 162056Z AUTO 32010G17KT 10SM BKN033 OVC043 06/02 A2999 RMK AO2 SLP202 T00560017 53021
KPQI 162036Z AUTO 31011G17KT 10SM SCT026 BKN031 BKN039 06/01 A2998 RMK AO2
KPQI 162026Z AUTO 32014KT 10SM BKN026 BKN031 OVC038 06/01 A2998 RMK AO2
KPQI 161956Z AUTO 32012G19KT 10SM SCT036 OVC044 07/00 A2996 RMK AO2 SLP189 T00670000
KPQI 161856Z AUTO 32014G25KT 10SM BKN036 07/00 A2994 RMK AO2 SLP182 T00720000
KPQI 161756Z AUTO 31014G19KT 10SM OVC030 07/01 A2993 RMK AO2 SLP179 T00720011 10078 20061 51018
KPQI 161711Z AUTO 32009G20KT 10SM OVC031 07/01 A2992 RMK AO2
KPQI 161656Z AUTO 30011G18KT 10SM OVC027 07/01 A2991 RMK AO2 SLP173 T00720011
KPQI 161556Z AUTO 33015G21KT 10SM OVC027 07/01 A2990 RMK AO2 PK WND 33026/1500 SLP168 T00720006
KPQI 161456Z AUTO 33019G25KT 10SM BKN029 07/01 A2988 RMK AO2 SLP160 T00670006 51028
KPQI 161356Z AUTO 32013G23KT 10SM OVC029 07/01 A2984 RMK AO2 SLP149 T00670006
KPQI 161256Z AUTO 33012G19KT 10SM OVC029 07/01 A2983 RMK AO2 SLP147 T00670011
KPQI 161242Z AUTO 32010G24KT 10SM BKN029 07/01 A2983 RMK AO2
KPQI 161225Z AUTO 32014G18KT 10SM SCT026 07/01 A2981 RMK AO2
KPQI 161156Z AUTO 31011G22KT 10SM OVC026 06/01 A2979 RMK AO2 RAB1059E09 SLP133 P0000 60000 70028 T00610011 10172 20061 51068
KPQI 161056Z AUTO 30011G19KT 9SM OVC020 07/03 A2973 RMK AO2 SLP111 T00670033
KPQI 160956Z AUTO 31019G23KT 10SM BKN018 OVC048 08/04 A2966 RMK AO2 SLP088 T00830044
KPQI 160921Z AUTO 32016KT 10SM BKN018 OVC032 09/06 A2962 RMK AO2
KPQI 160856Z AUTO 33014KT 10SM BKN030 OVC038 09/06 A2959 RMK AO2 PK WND 33029/0828 WSHFT 0804 SLP062 T00890056 53055
KPQI 160840Z AUTO 32015G25KT 10SM BKN028 OVC036 09/06 A2957 RMK AO2 PK WND 33029/0828 WSHFT 0804
KPQI 160824Z AUTO 33020G26KT 10SM FEW025 BKN030 BKN037 11/07 A2954 RMK AO2 PK WND 31029/0812 WSHFT 0804 PRESRR
KPQI 160756Z AUTO 27019G30KT 10SM FEW031 SCT039 BKN060 17/12 A2947 RMK AO2 PK WND 27030/0755 SLP019 T01720122
KPQI 160656Z AUTO 23012G21KT 10SM CLR 17/14 A2942 RMK AO2 SLP002 T01670139
KPQI 160556Z AUTO 23011G21KT 10SM OVC065 17/14 A2943 RMK AO2 RAB27E49 SLP004 P0000 60001 T01720144 10183 20167 51019
KPQI 160456Z AUTO 20009KT 10SM OVC085 17/14 A2940 RMK AO2 RAB24E38 SLP994 P0000 T01720139 401830072
KPQI 160356Z AUTO 23008KT 10SM FEW022 BKN065 OVC085 18/16 A2941 RMK AO2 RAB09E51 SLP001 P0001 T01780161
KPQI 160256Z AUTO 19015G21KT 10SM SCT019 SCT042 BKN055 18/16 A2937 RMK AO2 SLP985 T01830156 55017
KPQI 160156Z AUTO 19018G28KT 10SM FEW017 SCT065 18/16 A2935 RMK AO2 PK WND 19029/0144 SLP978 T01830156
KPQI 160056Z AUTO 19019G26KT 10SM FEW017 18/15 A2939 RMK AO2 PK WND 18028/0022 SLP991 T01780150
KPQI 160034Z AUTO 18014G25KT 10SM SCT017 18/15 A2941 RMK AO2 PK WND 18028/0022
KPQI 152356Z AUTO 18018G26KT 10SM BKN017 17/15 A2942 RMK AO2 PK WND 17026/2347 PRESFR SLP003 T01720150 10172 20133 58046
KPQI 152256Z AUTO 18016G21KT 10SM OVC017 17/14 A2947 RMK AO2 SLP022 T01720144 TSNO
KPQI 152156Z AUTO 18016G23KT 10SM OVC019 17/14 A2951 RMK AO2 SLP035 T01720144
KPQI 152056Z AUTO 18012KT 10SM OVC019 17/14 A2956 RMK AO2 SLP051 T01720144 56050
KPQI 151956Z AUTO 18014KT 10SM OVC021 17/14 A2960 RMK AO2 SLP066 T01670144